Flag for USA

Past Weather in 41°10'52.6"N, 96°08'02.6"W, USA — Yesterday and Last 2 Weeks

Currently: 47 °F. Sunny. (Weather station: Millard Airport, USA). See more current weather

Past Weather in 41°10'52.6"N, 96°08'02.6"W — Graph

°F

41°10'52.6"N, 96°08'02.6"W Temperature Yesterday

Maximum temperature yesterday: 52 °F (at 3:15 pm)
Minimum temperature yesterday: 22 °F (at 2:55 am)
Average temperature yesterday: 36 °F

High & Low Weather Summary for the Past Weeks

 TemperatureHumidityPressure
High53 °F (Jan 12, 3:35 pm)92% (Jan 10, 8:55 am)30.45 "Hg (Jan 10, 8:55 am)
Low22 °F (Jan 16, 9:55 pm)36% (Jan 20, 3:15 pm)29.49 "Hg (Jan 14, 12:55 am)
Average34 °F75%30.07 "Hg
* Reported Jan 6 11:18 am — Jan 21 11:15 am, 41°10'52.6"N, 96°08'02.6"W. Weather by CustomWeather, © 2021

Note: Actual official high and low records may vary slightly from our data, if they occured in-between our weather recording intervals... More about our weather records

41°10'52.6"N, 96°08'02.6"W Weather History for the Previous 24 Hours

Scroll right to see more
 ConditionsComfort  
Time TempWeatherWind HumidityBarometerVisibility
11:15 am
Thu, Jan 21
44 °FSunny.12 mph42%29.97 "Hg10 mi
10:55 am43 °FSunny.9 mph43%29.98 "Hg10 mi
10:35 am42 °FSunny.6 mph45%29.98 "Hg10 mi
10:15 am41 °FSunny.5 mph51%29.97 "Hg10 mi
9:55 am38 °FSunny.5 mph56%29.96 "Hg10 mi
9:35 am36 °FSunny.5 mph60%29.96 "Hg10 mi
9:10 am33 °FSunny.3 mph68%29.96 "Hg10 mi
8:55 am30 °FSunny.No wind82%29.96 "Hg10 mi
8:35 am26 °FSunny.No wind82%29.95 "Hg10 mi
7:55 am25 °FSunny.No wind84%29.95 "Hg10 mi
7:35 am24 °FClear.No wind84%29.95 "Hg10 mi
7:15 am24 °FClear.No wind84%29.94 "Hg10 mi
6:55 am25 °FClear.No wind85%29.94 "Hg10 mi
6:35 am25 °FClear.No wind85%29.93 "Hg10 mi
6:15 am25 °FClear.No wind84%29.93 "Hg10 mi
5:55 am25 °FClear.No wind84%29.93 "Hg10 mi
5:35 am25 °FClear.No wind85%29.93 "Hg10 mi
5:15 am26 °FClear.No wind83%29.93 "Hg10 mi
4:55 am26 °FClear.No wind81%29.93 "Hg10 mi
4:35 am26 °FClear.No wind82%29.92 "Hg10 mi
4:15 am26 °FClear.No wind83%29.93 "Hg10 mi
3:55 am26 °FClear.No wind82%29.93 "Hg10 mi
3:35 am26 °FClear.No wind84%29.93 "Hg10 mi
3:15 am26 °FClear.No wind84%29.93 "Hg10 mi
2:55 am27 °FClear.No wind85%29.94 "Hg10 mi
2:35 am27 °FClear.No wind85%29.94 "Hg10 mi
2:15 am28 °FClear.No wind83%29.94 "Hg10 mi
1:55 am28 °FClear.No wind84%29.94 "Hg10 mi
1:35 am28 °FClear.No wind84%29.93 "Hg10 mi
12:55 am28 °FClear.No wind82%29.93 "Hg10 mi
12:35 am29 °FClear.No wind85%29.92 "Hg10 mi
11:55 pm
Wed, Jan 20
28 °FClear.No wind84%29.93 "Hg10 mi
11:35 pm29 °FClear.No wind83%29.93 "Hg10 mi
11:15 pm30 °FClear.No wind81%29.93 "Hg10 mi
10:55 pm31 °FClear.No wind79%29.93 "Hg10 mi
10:35 pm32 °FClear.3 mph79%29.93 "Hg10 mi
10:15 pm32 °FClear.No wind79%29.93 "Hg10 mi
9:55 pm32 °FClear.No wind79%29.93 "Hg10 mi
9:35 pm32 °FClear.No wind75%29.93 "Hg10 mi
9:20 pm34 °FClear.No wind74%29.93 "Hg10 mi
8:55 pm35 °FClear.No wind71%29.92 "Hg10 mi
8:35 pm35 °FClear.No wind73%29.91 "Hg10 mi
8:15 pm36 °FClear.No wind69%29.91 "Hg10 mi
7:55 pm36 °FClear.No wind67%29.91 "Hg10 mi
7:35 pm37 °FClear.No wind67%29.90 "Hg10 mi
7:15 pm38 °FClear.No wind65%29.90 "Hg10 mi
6:55 pm39 °FClear.No wind62%29.90 "Hg10 mi
6:15 pm42 °FClear.No wind57%29.89 "Hg10 mi
5:55 pm44 °FClear.No wind51%29.88 "Hg10 mi
5:35 pm48 °FClear.No wind44%29.87 "Hg10 mi
4:55 pm51 °FSunny.6 mph38%29.86 "Hg10 mi
4:35 pm52 °FSunny.6 mph38%29.86 "Hg10 mi
3:55 pm52 °FSunny.9 mph37%29.85 "Hg10 mi
3:35 pm52 °FSunny.12 mph36%29.85 "Hg10 mi
3:15 pm52 °FSunny.13 mph36%29.85 "Hg10 mi
2:55 pm52 °FSunny.10 mph37%29.85 "Hg10 mi
2:35 pm52 °FSunny.15 mph37%29.85 "Hg10 mi
2:15 pm51 °FSunny.10 mph39%29.85 "Hg10 mi
1:55 pm51 °FSunny.14 mph40%29.86 "Hg10 mi
1:35 pm51 °FSunny.14 mph40%29.84 "Hg10 mi
1:15 pm50 °FSunny.14 mph41%29.85 "Hg10 mi
12:55 pm49 °FSunny.14 mph42%29.85 "Hg10 mi
12:35 pm47 °FSunny.14 mph44%29.87 "Hg10 mi
12:20 pm47 °FSunny.17 mph44%29.87 "Hg10 mi
Weather by CustomWeather, © 2021

See weather overview